Time;durP1;ratioP1;P1;durP2;ratioP2;P2;SDS_P1;SDS_P2;PMS_P1;PMS_P2;Temp;Humidity;BMP_temperature;BMP_pressure;BME280_temperature;BME280_humidity;BME280_pressure;Samples;Min_cycle;Max_cycle;Signal;HPM_P1;HPM_P2
2023/03/07 00:02:21;;;;;;;21.27;13.23;;;5.70;78.00;;;;;;5033025;28;20448;-73
2023/03/07 00:04:47;;;;;;;19.15;12.63;;;5.70;78.60;;;;;;5036543;28;20394;-72
2023/03/07 00:07:14;;;;;;;21.23;13.05;;;5.70;77.00;;;;;;5033488;28;20383;-72
2023/03/07 00:09:39;;;;;;;20.30;12.45;;;5.70;77.10;;;;;;5033575;28;20398;-72
2023/03/07 00:12:06;;;;;;;22.05;12.77;;;5.60;77.50;;;;;;5034079;28;20387;-72
2023/03/07 00:14:32;;;;;;;22.17;12.20;;;5.60;77.20;;;;;;5033163;28;20433;-72
2023/03/07 00:16:58;;;;;;;20.95;12.70;;;5.60;77.60;;;;;;5032683;28;20461;-72
2023/03/07 00:19:23;;;;;;;20.08;12.00;;;5.60;77.50;;;;;;5032858;28;20403;-72
2023/03/07 00:21:49;;;;;;;19.33;11.65;;;5.60;79.10;;;;;;5031978;28;20390;-72
2023/03/07 00:24:14;;;;;;;18.88;11.85;;;5.60;78.10;;;;;;5031963;28;20391;-73
2023/03/07 00:26:40;;;;;;;20.52;12.35;;;5.60;78.20;;;;;;5033241;28;20410;-72
2023/03/07 00:29:07;;;;;;;20.20;12.67;;;5.60;78.50;;;;;;5034104;28;20383;-72
2023/03/07 00:31:33;;;;;;;22.42;13.10;;;5.50;80.10;;;;;;5032812;28;20803;-73
2023/03/07 00:33:59;;;;;;;17.50;11.68;;;5.50;81.50;;;;;;5032761;28;20418;-72
2023/03/07 00:36:25;;;;;;;19.87;12.33;;;5.60;81.90;;;;;;5032319;28;20489;-72
2023/03/07 00:38:51;;;;;;;19.38;11.70;;;5.50;82.30;;;;;;5031617;28;20451;-72
2023/03/07 00:41:23;;;;;;;20.08;12.18;;;5.50;82.10;;;;;;5031318;28;20827;-72
2023/03/07 00:43:48;;;;;;;21.15;12.02;;;5.60;82.80;;;;;;5031665;28;20375;-71
2023/03/07 00:46:15;;;;;;;19.23;12.43;;;5.50;84.60;;;;;;5031630;28;20384;-71
2023/03/07 00:48:41;;;;;;;19.20;12.07;;;5.50;85.60;;;;;;5031472;28;20411;-72
2023/03/07 00:51:09;;;;;;;18.08;11.75;;;5.40;89.10;;;;;;5044012;28;20394;-72
2023/03/07 00:53:34;;;;;;;19.20;12.65;;;5.40;89.60;;;;;;5047521;28;20403;-72
2023/03/07 00:56:04;;;;;;;20.43;12.80;;;5.40;89.70;;;;;;5032187;28;20379;-72
2023/03/07 00:58:31;;;;;;;17.13;11.95;;;5.40;90.00;;;;;;5031538;28;20553;-71
2023/03/07 01:00:57;;;;;;;18.85;11.68;;;5.50;89.10;;;;;;5030822;28;20411;-72
2023/03/07 01:03:23;;;;;;;19.03;12.20;;;5.50;88.70;;;;;;5031090;28;20383;-71
2023/03/07 01:05:49;;;;;;;18.98;11.82;;;5.40;91.00;;;;;;5030914;28;20585;-72
2023/03/07 01:08:16;;;;;;;18.83;11.90;;;5.40;90.60;;;;;;5031118;28;20414;-72
2023/03/07 01:10:42;;;;;;;16.60;11.60;;;5.40;90.70;;;;;;5031341;28;20911;-73
2023/03/07 01:13:09;;;;;;;17.23;11.40;;;5.50;91.10;;;;;;5013218;28;20383;-71
2023/03/07 01:15:35;;;;;;;16.60;11.38;;;5.50;91.60;;;;;;5030987;28;20388;-72
2023/03/07 01:18:02;;;;;;;18.15;12.00;;;5.50;91.60;;;;;;5030639;28;20395;-72
2023/03/07 01:20:31;;;;;;;17.67;11.85;;;5.50;91.10;;;;;;5030800;28;20807;-72
2023/03/07 01:22:56;;;;;;;15.25;10.43;;;5.50;91.50;;;;;;5030486;28;20387;-72
2023/03/07 01:25:22;;;;;;;15.73;10.00;;;5.60;88.80;;;;;;5030810;28;20375;-72
2023/03/07 01:27:48;;;;;;;16.40;10.60;;;5.60;89.30;;;;;;5030667;28;20403;-72
2023/03/07 01:30:13;;;;;;;14.40;10.38;;;5.50;90.60;;;;;;5030857;28;20521;-72
2023/03/07 01:32:39;;;;;;;15.63;11.15;;;5.50;91.60;;;;;;5030896;28;20387;-71
2023/03/07 01:35:05;;;;;;;16.00;10.23;;;5.60;93.20;;;;;;5030490;28;20406;-71
2023/03/07 01:37:30;;;;;;;17.70;10.40;;;5.50;94.70;;;;;;5030666;28;20764;-70
2023/03/07 01:39:56;;;;;;;13.17;10.03;;;5.60;92.50;;;;;;5030555;28;20456;-73
2023/03/07 01:42:21;;;;;;;13.68;9.10;;;5.60;92.20;;;;;;5012758;28;20384;-72
2023/03/07 01:45:13;;;;;;;13.63;9.55;;;5.60;91.80;;;;;;5031993;28;20722;-73
2023/03/07 01:47:40;;;;;;;11.85;8.18;;;5.60;92.70;;;;;;5007477;28;20835;-72
2023/03/07 01:50:10;;;;;;;14.80;8.80;;;5.60;91.60;;;;;;5030896;28;20395;-72
2023/03/07 01:52:40;;;;;;;12.65;8.60;;;5.60;91.80;;;;;;5030814;28;20395;-73
2023/03/07 01:55:13;;;;;;;15.10;9.40;;;5.60;92.70;;;;;;5031027;28;20387;-72
2023/03/07 01:57:41;;;;;;;12.45;8.52;;;5.60;93.00;;;;;;5030917;28;20466;-72
2023/03/07 02:00:12;;;;;;;9.80;7.30;;;5.60;94.20;;;;;;5033937;28;20497;-71
2023/03/07 02:02:41;;;;;;;9.73;7.68;;;5.60;92.50;;;;;;5035478;28;20402;-71
2023/03/07 02:05:19;;;;;;;10.43;8.02;;;5.60;91.70;;;;;;5035856;28;20383;-71
2023/03/07 02:07:49;;;;;;;10.45;8.00;;;5.60;93.00;;;;;;5038647;28;20387;-73
2023/03/07 02:10:18;;;;;;;9.95;7.80;;;5.60;95.30;;;;;;5037610;28;20748;-73
2023/03/07 02:12:44;;;;;;;9.88;7.00;;;5.60;93.80;;;;;;5036630;28;20470;-72
2023/03/07 02:15:11;;;;;;;7.25;6.15;;;5.60;91.30;;;;;;5035411;28;20394;-72
2023/03/07 02:17:39;;;;;;;8.50;5.93;;;5.60;90.10;;;;;;5017686;28;20426;-73
2023/03/07 02:20:29;;;;;;;7.20;5.60;;;5.50;90.00;;;;;;5035352;28;20406;-72
2023/03/07 02:22:55;;;;;;;6.32;5.18;;;5.50;90.60;;;;;;5037239;28;20390;-73
2023/03/07 02:25:37;;;;;;;6.43;5.00;;;5.60;88.30;;;;;;5038031;28;20387;-73
2023/03/07 02:28:04;;;;;;;6.60;4.90;;;5.50;90.20;;;;;;5038273;28;20490;-73
2023/03/07 02:30:30;;;;;;;6.35;5.60;;;5.50;90.60;;;;;;5039358;28;20398;-72
2023/03/07 02:32:55;;;;;;;8.30;5.77;;;5.50;92.20;;;;;;5041570;28;20383;-72
2023/03/07 02:35:23;;;;;;;5.90;5.23;;;5.50;92.30;;;;;;5040170;28;20390;-72
2023/03/07 02:37:53;;;;;;;7.68;5.57;;;5.50;92.20;;;;;;5038965;28;20396;-72
2023/03/07 02:40:22;;;;;;;9.80;6.90;;;5.50;93.00;;;;;;5017805;28;20407;-73
2023/03/07 02:42:49;;;;;;;8.18;6.18;;;5.50;96.70;;;;;;5033913;28;20390;-72
2023/03/07 02:45:17;;;;;;;8.23;6.72;;;5.60;95.40;;;;;;5033541;28;20391;-72
2023/03/07 02:47:44;;;;;;;8.60;7.20;;;5.60;96.30;;;;;;5033473;28;20410;-72
2023/03/07 02:50:11;;;;;;;11.38;7.10;;;5.60;95.60;;;;;;5033674;28;20402;-71
2023/03/07 02:52:36;;;;;;;8.23;5.97;;;5.70;94.80;;;;;;5033647;28;20414;-72
2023/03/07 02:55:02;;;;;;;7.72;5.85;;;5.70;91.40;;;;;;5015754;28;20508;-70
2023/03/07 02:57:28;;;;;;;5.90;5.20;;;5.70;89.20;;;;;;5033421;28;20393;-73
2023/03/07 02:59:54;;;;;;;6.20;5.60;;;5.60;91.40;;;;;;5033099;28;20554;-72
2023/03/07 03:02:19;;;;;;;7.23;6.00;;;5.60;91.40;;;;;;5033041;28;20383;-71
2023/03/07 03:04:45;;;;;;;6.00;5.35;;;5.60;91.90;;;;;;5032900;28;20422;-71
2023/03/07 03:07:11;;;;;;;10.35;6.28;;;5.60;90.60;;;;;;5032823;28;20375;-71
2023/03/07 03:09:36;;;;;;;8.98;5.90;;;5.60;92.90;;;;;;5033381;28;20379;-72
2023/03/07 03:12:02;;;;;;;6.63;5.35;;;5.60;92.00;;;;;;5032769;28;20482;-72
2023/03/07 03:14:27;;;;;;;8.55;5.63;;;5.60;92.60;;;;;;5033095;28;20387;-72
2023/03/07 03:16:53;;;;;;;9.97;5.80;;;5.60;91.10;;;;;;5032532;28;20417;-72
2023/03/07 03:19:19;;;;;;;8.30;5.67;;;5.50;94.40;;;;;;5032769;28;20414;-72
2023/03/07 03:21:45;;;;;;;8.25;6.47;;;5.40;96.90;;;;;;5032421;28;20407;-72
2023/03/07 03:24:10;;;;;;;10.07;6.43;;;5.60;97.50;;;;;;5032699;28;20383;-71
2023/03/07 03:26:36;;;;;;;10.57;7.00;;;5.60;95.90;;;;;;5032554;28;20772;-71
2023/03/07 03:29:04;;;;;;;11.07;7.20;;;5.60;95.30;;;;;;5032585;28;20383;-71
2023/03/07 03:31:30;;;;;;;10.93;7.57;;;5.60;95.40;;;;;;5032187;28;20423;-71
2023/03/07 03:33:57;;;;;;;11.90;7.80;;;5.70;94.60;;;;;;5032592;28;20387;-72
2023/03/07 03:36:27;;;;;;;13.32;8.80;;;5.70;95.30;;;;;;5032286;28;20450;-71
2023/03/07 03:38:54;;;;;;;13.68;9.82;;;5.70;96.20;;;;;;5032656;28;20892;-71
2023/03/07 03:41:20;;;;;;;14.93;10.60;;;5.60;98.00;;;;;;5032030;28;20454;-71
2023/03/07 03:43:45;;;;;;;16.63;11.20;;;5.60;97.50;;;;;;5032670;28;20407;-71
2023/03/07 03:46:11;;;;;;;15.17;11.40;;;5.70;95.30;;;;;;5032503;28;20398;-72
2023/03/07 03:48:37;;;;;;;16.48;10.90;;;5.70;94.70;;;;;;5032883;28;20461;-72
2023/03/07 03:51:09;;;;;;;17.20;10.80;;;5.70;95.50;;;;;;5033148;28;20458;-71
2023/03/07 03:53:36;;;;;;;16.33;11.52;;;5.70;93.30;;;;;;5033471;28;20888;-71
2023/03/07 03:56:07;;;;;;;17.50;11.63;;;5.70;94.20;;;;;;5014573;28;20474;-72
2023/03/07 03:58:33;;;;;;;20.42;11.23;;;5.70;92.00;;;;;;5032053;28;20387;-71
2023/03/07 04:01:07;;;;;;;18.38;11.52;;;5.70;89.90;;;;;;5032121;28;20441;-72
2023/03/07 04:03:42;;;;;;;16.80;11.68;;;5.70;88.80;;;;;;5032889;28;20383;-71
2023/03/07 04:06:17;;;;;;;17.08;12.32;;;5.60;91.70;;;;;;5033074;28;20864;-72
2023/03/07 04:08:45;;;;;;;16.50;12.00;;;5.60;92.50;;;;;;5032519;28;20383;-71
2023/03/07 04:11:11;;;;;;;19.80;12.43;;;5.60;90.70;;;;;;5031643;28;20666;-71
2023/03/07 04:13:36;;;;;;;16.50;11.57;;;5.60;90.90;;;;;;5031913;28;20795;-71
2023/03/07 04:16:03;;;;;;;16.75;12.23;;;5.60;91.30;;;;;;5031814;28;20391;-71
2023/03/07 04:18:28;;;;;;;18.67;11.43;;;5.60;89.50;;;;;;5031733;28;20397;-71
2023/03/07 04:20:54;;;;;;;18.60;11.70;;;5.60;88.80;;;;;;5031651;28;20761;-70
2023/03/07 04:23:21;;;;;;;15.52;11.00;;;5.60;87.10;;;;;;5013747;28;20395;-72
2023/03/07 04:25:54;;;;;;;18.83;11.43;;;5.60;86.00;;;;;;5031520;28;20390;-71
2023/03/07 04:28:20;;;;;;;15.38;11.30;;;5.60;86.80;;;;;;5031749;28;20395;-71
2023/03/07 04:30:48;;;;;;;15.60;11.20;;;5.70;84.40;;;;;;5031576;28;20383;-71
2023/03/07 04:33:14;;;;;;;14.73;10.52;;;5.60;85.60;;;;;;5031693;28;20721;-71
2023/03/07 04:35:40;;;;;;;14.23;9.77;;;5.60;86.40;;;;;;5031567;28;20474;-71
2023/03/07 04:38:06;;;;;;;16.17;10.88;;;5.60;83.90;;;;;;5013591;28;20471;-71
2023/03/07 04:40:32;;;;;;;16.80;11.07;;;5.60;86.20;;;;;;5031447;28;20399;-72
2023/03/07 04:42:57;;;;;;;18.48;11.65;;;5.50;88.30;;;;;;5031084;28;20388;-72
2023/03/07 04:45:23;;;;;;;16.02;10.38;;;5.50;87.40;;;;;;5013526;28;20391;-72
2023/03/07 04:47:48;;;;;;;14.52;10.50;;;5.50;85.70;;;;;;5031047;28;20876;-72
2023/03/07 04:50:17;;;;;;;16.90;11.73;;;5.50;86.10;;;;;;5031320;28;20418;-73
2023/03/07 04:52:42;;;;;;;17.52;11.27;;;5.50;87.20;;;;;;5031294;28;20382;-71
2023/03/07 04:55:09;;;;;;;15.38;11.30;;;5.50;87.60;;;;;;5031327;28;20383;-72
2023/03/07 04:57:34;;;;;;;16.80;11.38;;;5.50;87.30;;;;;;5031205;28;20452;-71
2023/03/07 05:00:00;;;;;;;15.68;10.65;;;5.60;85.20;;;;;;5031686;28;20478;-71
2023/03/07 05:02:26;;;;;;;16.47;11.70;;;5.60;84.90;;;;;;5031282;28;20414;-71
2023/03/07 05:04:51;;;;;;;17.20;12.27;;;5.60;85.50;;;;;;5031470;28;20386;-71
2023/03/07 05:07:17;;;;;;;17.47;11.67;;;5.60;86.10;;;;;;5031237;28;20392;-71
2023/03/07 05:09:42;;;;;;;18.93;12.10;;;5.50;85.90;;;;;;5031034;28;20749;-71
2023/03/07 05:12:08;;;;;;;17.73;11.73;;;5.50;88.50;;;;;;5030932;28;20445;-71
2023/03/07 05:14:34;;;;;;;19.08;12.88;;;5.50;86.80;;;;;;5031181;28;20946;-71
2023/03/07 05:16:59;;;;;;;17.57;11.63;;;5.50;87.20;;;;;;5030913;28;20468;-72
2023/03/07 05:19:25;;;;;;;17.17;11.80;;;5.60;85.90;;;;;;5030993;28;20477;-71
2023/03/07 05:21:51;;;;;;;17.80;11.77;;;5.50;86.50;;;;;;5031716;28;20394;-71
2023/03/07 05:24:17;;;;;;;18.70;12.20;;;5.60;85.80;;;;;;5044812;28;20419;-71
2023/03/07 05:26:43;;;;;;;17.07;11.70;;;5.60;85.60;;;;;;5038007;28;20395;-71
2023/03/07 05:29:08;;;;;;;18.40;12.20;;;5.50;86.10;;;;;;5036552;28;20402;-71
2023/03/07 05:31:35;;;;;;;17.23;12.13;;;5.50;87.50;;;;;;5033839;28;20480;-72
2023/03/07 05:34:00;;;;;;;19.65;12.40;;;5.60;87.60;;;;;;5030071;28;20395;-70
2023/03/07 05:36:26;;;;;;;19.88;13.02;;;5.50;89.70;;;;;;5031616;28;20375;-73
2023/03/07 05:38:55;;;;;;;21.15;12.35;;;5.50;90.60;;;;;;5030572;28;20470;-71
2023/03/07 05:41:21;;;;;;;17.73;12.52;;;5.50;88.50;;;;;;5030559;28;20457;-72
2023/03/07 05:43:46;;;;;;;17.42;11.68;;;5.50;88.50;;;;;;5031065;28;20380;-72
2023/03/07 05:46:12;;;;;;;21.05;11.80;;;5.50;86.90;;;;;;5031634;28;20379;-72
2023/03/07 05:48:37;;;;;;;16.63;11.38;;;5.60;85.70;;;;;;5031689;28;20387;-73
2023/03/07 05:51:03;;;;;;;15.77;11.55;;;5.60;85.60;;;;;;5032106;28;20473;-73
2023/03/07 05:53:29;;;;;;;19.38;12.05;;;5.50;88.00;;;;;;5031071;28;20402;-72
2023/03/07 05:55:54;;;;;;;20.33;11.93;;;5.40;90.20;;;;;;5013108;28;20395;-72
2023/03/07 05:58:20;;;;;;;18.40;12.00;;;5.50;88.60;;;;;;5032350;28;20394;-71
2023/03/07 06:00:45;;;;;;;20.03;11.67;;;5.50;88.90;;;;;;5031413;28;20407;-71
2023/03/07 06:03:11;;;;;;;18.10;11.80;;;5.50;87.30;;;;;;5031871;28;20391;-72
2023/03/07 06:05:38;;;;;;;18.27;11.70;;;5.50;87.80;;;;;;5034377;28;20423;-74
2023/03/07 06:08:03;;;;;;;19.40;12.50;;;5.60;86.40;;;;;;5032540;28;20383;-73
2023/03/07 06:10:29;;;;;;;16.90;12.05;;;5.60;86.80;;;;;;5031157;28;20394;-72
2023/03/07 06:12:54;;;;;;;18.83;11.68;;;5.60;87.90;;;;;;5030221;28;20391;-73
2023/03/07 06:15:21;;;;;;;19.13;12.70;;;5.50;88.20;;;;;;5031590;28;20787;-72
2023/03/07 06:17:46;;;;;;;20.75;12.85;;;5.60;88.40;;;;;;5031346;28;20405;-73
2023/03/07 06:20:12;;;;;;;20.02;12.55;;;5.60;87.00;;;;;;5030682;28;20395;-73
2023/03/07 06:22:38;;;;;;;22.40;12.83;;;5.60;85.90;;;;;;5030500;28;20394;-73
2023/03/07 06:25:05;;;;;;;19.20;12.20;;;5.70;86.40;;;;;;5030388;28;20391;-71
2023/03/07 06:27:33;;;;;;;23.05;13.80;;;5.60;86.90;;;;;;5030106;28;20438;-72
2023/03/07 06:29:58;;;;;;;20.27;13.10;;;5.70;86.40;;;;;;5030945;28;20463;-73
2023/03/07 06:32:24;;;;;;;19.45;12.73;;;5.70;85.90;;;;;;5029916;28;20803;-72
2023/03/07 06:34:49;;;;;;;23.92;14.18;;;5.60;86.90;;;;;;5029798;28;20394;-73
2023/03/07 06:37:15;;;;;;;22.90;13.88;;;5.60;88.80;;;;;;5030107;28;20466;-72
2023/03/07 06:39:41;;;;;;;20.42;13.38;;;5.60;91.50;;;;;;5029960;28;20419;-72
2023/03/07 06:42:07;;;;;;;28.63;13.90;;;5.70;88.10;;;;;;5030371;28;20468;-72
2023/03/07 06:44:32;;;;;;;19.53;13.07;;;5.70;87.50;;;;;;5029789;28;20384;-72
2023/03/07 06:46:58;;;;;;;24.05;13.88;;;5.80;87.30;;;;;;5033380;28;20394;-71
2023/03/07 06:49:23;;;;;;;21.92;13.10;;;5.80;87.30;;;;;;5033443;28;20872;-72
2023/03/07 06:51:49;;;;;;;22.00;13.38;;;5.80;86.30;;;;;;5033337;28;20391;-72
2023/03/07 06:54:14;;;;;;;20.35;12.65;;;5.90;85.70;;;;;;5033834;28;20387;-71
2023/03/07 06:56:40;;;;;;;19.80;12.50;;;5.80;85.20;;;;;;5032999;28;20387;-73
2023/03/07 06:59:06;;;;;;;19.35;12.85;;;5.80;84.70;;;;;;5015541;28;20486;-71
2023/03/07 07:01:31;;;;;;;20.45;13.30;;;5.90;84.20;;;;;;5033009;28;20912;-72
2023/03/07 07:03:57;;;;;;;21.63;13.27;;;5.80;87.30;;;;;;5033057;28;20497;-71
2023/03/07 07:06:23;;;;;;;21.63;12.80;;;5.90;84.70;;;;;;5033147;28;20389;-72
2023/03/07 07:08:52;;;;;;;19.80;13.02;;;5.90;83.90;;;;;;5015747;28;20549;-72
2023/03/07 07:11:17;;;;;;;18.75;12.75;;;5.90;84.60;;;;;;5033245;28;20478;-73
2023/03/07 07:13:44;;;;;;;21.43;13.00;;;6.00;83.00;;;;;;5034064;28;20519;-72
2023/03/07 07:16:14;;;;;;;21.25;12.30;;;6.00;82.50;;;;;;5033990;28;20387;-73
2023/03/07 07:18:39;;;;;;;23.55;13.52;;;6.00;81.60;;;;;;5033388;28;20760;-72
2023/03/07 07:21:05;;;;;;;19.10;12.60;;;6.00;81.60;;;;;;5033535;28;20399;-72
2023/03/07 07:23:30;;;;;;;23.52;13.40;;;6.00;81.90;;;;;;5033271;28;20444;-72
2023/03/07 07:25:56;;;;;;;20.25;13.05;;;6.00;82.60;;;;;;5034306;28;20386;-72
2023/03/07 07:28:21;;;;;;;24.60;13.40;;;6.00;83.20;;;;;;5032723;28;20880;-71
2023/03/07 07:30:47;;;;;;;21.37;13.50;;;6.00;82.40;;;;;;5031429;28;20466;-71
2023/03/07 07:33:13;;;;;;;26.93;13.73;;;6.10;80.90;;;;;;5031461;28;20395;-72
2023/03/07 07:35:40;;;;;;;21.17;13.70;;;6.10;81.10;;;;;;5031056;28;20382;-73
2023/03/07 07:38:05;;;;;;;25.58;13.77;;;6.10;80.80;;;;;;5031010;28;20387;-72
2023/03/07 07:40:31;;;;;;;21.83;13.98;;;6.10;81.20;;;;;;5031354;28;20441;-72
2023/03/07 07:42:56;;;;;;;24.25;13.45;;;6.20;81.70;;;;;;5031069;28;20394;-72
2023/03/07 07:45:23;;;;;;;18.05;12.10;;;6.20;80.90;;;;;;5031972;28;20437;-73
2023/03/07 07:47:49;;;;;;;22.17;12.23;;;6.30;78.20;;;;;;5014624;28;20491;-72
2023/03/07 07:50:19;;;;;;;22.63;12.20;;;6.40;75.50;;;;;;5020792;28;20393;-72
2023/03/07 07:52:45;;;;;;;20.25;12.35;;;6.40;75.40;;;;;;5011760;28;20870;-72
2023/03/07 07:55:14;;;;;;;19.60;12.50;;;6.30;77.30;;;;;;5011880;28;20396;-72
2023/03/07 07:57:41;;;;;;;21.13;12.70;;;6.40;78.20;;;;;;5011457;28;20940;-71
2023/03/07 08:00:09;;;;;;;19.52;12.10;;;6.40;77.00;;;;;;5027179;28;20407;-71
2023/03/07 08:02:35;;;;;;;20.92;11.55;;;6.40;77.10;;;;;;5032364;28;20399;-71
2023/03/07 08:05:01;;;;;;;21.30;11.90;;;6.30;77.50;;;;;;5026468;28;20471;-71
2023/03/07 08:07:26;;;;;;;18.42;11.00;;;6.40;78.80;;;;;;5012138;28;20793;-71
2023/03/07 08:09:52;;;;;;;19.40;11.30;;;6.40;76.50;;;;;;5022041;28;20755;-73
2023/03/07 08:12:17;;;;;;;18.70;12.00;;;6.40;75.00;;;;;;5008541;28;21012;-71
2023/03/07 08:14:43;;;;;;;18.75;10.95;;;6.30;77.40;;;;;;4997566;28;20411;-72
2023/03/07 08:17:09;;;;;;;19.50;11.05;;;6.30;75.60;;;;;;5008989;28;20487;-74
2023/03/07 08:19:34;;;;;;;17.20;11.20;;;6.30;75.10;;;;;;5009099;28;20809;-73
2023/03/07 08:22:01;;;;;;;16.50;10.73;;;6.20;77.50;;;;;;5008692;28;20397;-73
2023/03/07 08:24:26;;;;;;;16.95;10.52;;;6.20;76.70;;;;;;5008787;28;20430;-72
2023/03/07 08:26:52;;;;;;;15.70;10.40;;;6.20;77.00;;;;;;4949867;28;1767739;-73
2023/03/07 08:29:18;;;;;;;16.50;10.50;;;6.20;76.00;;;;;;5007313;28;20408;-73
2023/03/07 08:31:44;;;;;;;19.93;10.00;;;6.20;76.70;;;;;;4989733;28;20382;-73
2023/03/07 08:34:11;;;;;;;20.30;10.52;;;6.20;76.40;;;;;;4989847;28;20398;-75
2023/03/07 08:36:36;;;;;;;18.05;11.02;;;6.20;78.10;;;;;;5004476;28;20412;-73
2023/03/07 08:39:02;;;;;;;17.67;10.80;;;6.20;77.50;;;;;;5008946;28;20389;-72
2023/03/07 08:41:28;;;;;;;15.93;10.05;;;6.20;78.00;;;;;;5012538;28;20445;-72
2023/03/07 08:43:54;;;;;;;19.77;10.63;;;6.30;76.80;;;;;;5027213;28;20962;-74
2023/03/07 08:46:19;;;;;;;17.70;10.20;;;6.30;76.90;;;;;;5028803;28;20384;-73
2023/03/07 08:48:45;;;;;;;15.60;9.65;;;6.30;75.90;;;;;;5028848;28;20721;-72
2023/03/07 08:51:14;;;;;;;17.20;9.95;;;6.40;74.80;;;;;;5028461;28;20473;-71
2023/03/07 08:53:41;;;;;;;16.25;9.40;;;6.40;74.00;;;;;;5028548;28;20398;-72
2023/03/07 08:56:09;;;;;;;14.45;9.95;;;6.40;72.90;;;;;;5027173;28;20777;-72
2023/03/07 08:58:35;;;;;;;21.90;10.53;;;6.40;74.80;;;;;;5028696;28;20511;-72
2023/03/07 09:01:02;;;;;;;13.30;9.00;;;6.40;75.40;;;;;;5028534;28;20811;-73
2023/03/07 09:03:28;;;;;;;15.70;9.70;;;6.40;74.20;;;;;;5042557;28;20409;-72
2023/03/07 09:05:53;;;;;;;17.17;9.67;;;6.40;75.00;;;;;;5042513;28;20417;-71
2023/03/07 09:08:19;;;;;;;15.68;9.15;;;6.40;76.00;;;;;;5042149;28;20470;-72
2023/03/07 09:10:45;;;;;;;18.17;9.52;;;6.40;76.30;;;;;;5023676;28;20404;-71
2023/03/07 09:13:11;;;;;;;15.53;8.50;;;6.40;75.10;;;;;;5017827;28;20487;-72
2023/03/07 09:15:40;;;;;;;14.13;8.97;;;6.30;72.90;;;;;;5025216;28;20841;-72
2023/03/07 09:18:06;;;;;;;14.18;9.60;;;6.30;74.30;;;;;;5030365;28;20378;-71
2023/03/07 09:20:32;;;;;;;13.82;8.90;;;6.30;74.10;;;;;;5009216;28;20416;-72
2023/03/07 09:22:58;;;;;;;16.63;9.40;;;6.20;76.00;;;;;;5021046;28;20411;-71
2023/03/07 09:25:23;;;;;;;14.47;9.10;;;6.20;77.90;;;;;;5028468;28;20386;-72
2023/03/07 09:27:51;;;;;;;14.40;8.80;;;6.20;76.30;;;;;;5027817;28;20407;-71
2023/03/07 09:30:17;;;;;;;14.38;8.57;;;6.10;77.70;;;;;;5027076;28;20426;-71
2023/03/07 09:32:42;;;;;;;12.43;7.13;;;6.10;78.30;;;;;;5027890;28;20423;-71
2023/03/07 09:35:09;;;;;;;10.40;6.53;;;6.00;76.80;;;;;;5011956;28;20984;-73
2023/03/07 09:37:34;;;;;;;7.65;4.78;;;5.90;78.50;;;;;;5010052;28;20778;-74
2023/03/07 09:40:00;;;;;;;5.07;3.77;;;5.90;77.60;;;;;;5009650;28;20408;-72
2023/03/07 09:42:40;;;;;;;6.00;3.70;;;5.90;75.70;;;;;;5008403;28;20384;-73
2023/03/07 09:45:15;;;;;;;4.55;3.30;;;5.80;73.30;;;;;;5008477;28;20419;-72
2023/03/07 09:47:56;;;;;;;4.88;3.15;;;5.80;74.90;;;;;;5008046;28;20465;-72
2023/03/07 09:50:27;;;;;;;2.72;2.53;;;5.70;74.40;;;;;;4988640;28;20409;-73
2023/03/07 09:53:00;;;;;;;3.50;3.20;;;5.50;74.80;;;;;;4988494;28;20398;-73
2023/03/07 09:55:27;;;;;;;5.47;3.38;;;5.30;78.90;;;;;;4989392;28;20469;-72
2023/03/07 09:57:57;;;;;;;4.78;3.40;;;5.30;82.70;;;;;;4991776;28;20430;-72
2023/03/07 10:00:32;;;;;;;4.35;2.75;;;5.30;84.70;;;;;;5027359;28;20409;-71
2023/03/07 10:03:17;;;;;;;5.90;4.00;;;5.10;79.00;;;;;;5011481;28;20392;-72
2023/03/07 10:05:51;;;;;;;4.40;2.30;;;4.80;97.70;;;;;;5009767;28;20434;-72
2023/03/07 10:08:32;;;;;;;2.10;1.90;;;4.60;94.20;;;;;;4995232;28;20390;-73
2023/03/07 10:11:23;;;;;;;2.88;1.80;;;4.30;95.10;;;;;;5007164;28;20484;-71
2023/03/07 10:14:13;;;;;;;2.00;1.80;;;4.10;99.90;;;;;;5012912;28;20400;-73
2023/03/07 10:16:49;;;;;;;2.45;2.17;;;4.00;99.90;;;;;;5024841;28;20395;-71
2023/03/07 10:19:32;;;;;;;2.40;2.00;;;3.90;99.90;;;;;;5024922;28;20392;-72
2023/03/07 10:22:04;;;;;;;2.72;1.60;;;3.80;99.90;;;;;;5013089;28;20453;-71
2023/03/07 10:24:37;;;;;;;2.10;1.90;;;3.70;99.90;;;;;;5011180;28;20405;-71
2023/03/07 10:27:08;;;;;;;5.68;2.30;;;3.70;99.90;;;;;;5013972;28;20396;-73
2023/03/07 10:29:53;;;;;;;4.45;3.40;;;3.70;99.90;;;;;;5019068;28;20407;-72
2023/03/07 10:32:36;;;;;;;3.00;2.70;;;3.90;99.90;;;;;;5031958;28;20412;-74
2023/03/07 10:35:11;;;;;;;5.28;3.70;;;4.00;99.90;;;;;;5012946;28;20439;-74
2023/03/07 10:37:44;;;;;;;4.10;3.00;;;4.10;99.90;;;;;;5012031;28;20415;-72
2023/03/07 10:40:33;;;;;;;3.00;2.70;;;4.20;99.90;;;;;;5011864;28;20538;-72
2023/03/07 10:42:59;;;;;;;2.88;2.40;;;4.20;99.90;;;;;;5012045;28;20456;-72
2023/03/07 10:45:30;;;;;;;1.75;1.35;;;4.20;99.90;;;;;;5014736;28;20408;-71
2023/03/07 10:48:05;;;;;;;1.02;0.93;;;3.80;94.30;;;;;;5031493;28;20391;-72
2023/03/07 10:50:45;;;;;;;1.77;1.35;;;3.70;95.70;;;;;;5032233;28;20391;-74
2023/03/07 10:53:33;;;;;;;2.03;1.83;;;3.50;97.30;;;;;;5033597;28;20763;-73
2023/03/07 10:56:16;;;;;;;2.50;2.10;;;3.50;99.30;;;;;;5032933;28;20419;-71
2023/03/07 10:59:08;;;;;;;4.50;2.70;;;3.40;99.90;;;;;;5029326;28;20464;-72
2023/03/07 11:01:35;;;;;;;2.80;2.20;;;3.50;99.90;;;;;;5030802;28;20403;-73
2023/03/07 11:04:04;;;;;;;2.90;2.60;;;3.40;99.90;;;;;;5031782;28;20379;-72
2023/03/07 11:06:49;;;;;;;3.97;2.63;;;3.40;99.90;;;;;;5023727;28;20975;-72
2023/03/07 11:09:28;;;;;;;2.03;1.77;;;3.50;99.90;;;;;;5016241;28;20430;-73
2023/03/07 11:12:04;;;;;;;2.90;2.70;;;3.50;98.30;;;;;;5031224;28;20411;-73
2023/03/07 11:14:36;;;;;;;3.30;3.00;;;3.70;99.90;;;;;;5025700;28;20401;-72
2023/03/07 11:17:01;;;;;;;5.70;2.80;;;3.70;99.70;;;;;;5009970;28;20399;-72
2023/03/07 11:19:39;;;;;;;5.10;3.10;;;3.90;99.50;;;;;;5004902;28;20408;-74
2023/03/07 11:22:20;;;;;;;2.67;2.47;;;4.00;99.90;;;;;;5013523;28;20400;-76
2023/03/07 11:24:53;;;;;;;2.80;2.60;;;4.30;97.00;;;;;;5014226;28;20385;-74
2023/03/07 11:27:31;;;;;;;3.08;2.83;;;4.30;90.70;;;;;;5013653;28;20397;-75
2023/03/07 11:30:24;;;;;;;2.85;2.65;;;4.20;90.80;;;;;;5016395;28;20460;-75
2023/03/07 11:33:13;;;;;;;1.90;1.80;;;4.30;92.30;;;;;;5013237;28;20431;-74
2023/03/07 11:35:54;;;;;;;2.30;2.10;;;4.30;86.10;;;;;;5018443;28;20420;-72
2023/03/07 11:38:49;;;;;;;2.90;2.70;;;4.20;83.40;;;;;;5025615;28;20384;-73
2023/03/07 11:41:18;;;;;;;5.05;3.30;;;4.20;84.40;;;;;;5015390;28;20419;-73
2023/03/07 11:44:07;;;;;;;3.17;2.70;;;4.00;83.10;;;;;;5024409;28;20395;-72
2023/03/07 11:46:58;;;;;;;2.80;2.60;;;4.00;85.50;;;;;;5004008;28;20479;-73
2023/03/07 11:49:35;;;;;;;5.82;3.42;;;4.10;83.70;;;;;;5017501;28;20893;-73
2023/03/07 11:52:20;;;;;;;6.83;5.07;;;4.10;85.80;;;;;;5018830;28;20762;-74
2023/03/07 11:54:49;;;;;;;3.50;3.20;;;4.20;90.60;;;;;;5013899;28;20385;-74
2023/03/07 11:57:17;;;;;;;3.50;3.30;;;4.30;86.40;;;;;;5018193;28;20814;-73
2023/03/07 11:59:43;;;;;;;3.47;3.17;;;4.20;80.80;;;;;;5005952;28;20431;-73
2023/03/07 12:02:26;;;;;;;4.68;3.97;;;4.10;81.20;;;;;;5007619;28;20407;-74
2023/03/07 12:05:18;;;;;;;4.40;4.00;;;4.20;83.40;;;;;;5023195;28;20409;-73
2023/03/07 12:07:58;;;;;;;4.63;4.13;;;4.30;83.60;;;;;;5015842;28;20778;-72
2023/03/07 12:10:38;;;;;;;4.35;3.30;;;4.20;81.60;;;;;;4994773;28;20693;-75
2023/03/07 12:13:53;;;;;;;3.20;2.90;;;4.10;81.50;;;;;;4994719;28;20923;-74
2023/03/07 12:16:47;;;;;;;4.28;3.28;;;4.00;81.70;;;;;;5016320;28;20443;-75
2023/03/07 12:19:21;;;;;;;2.90;2.70;;;4.00;81.90;;;;;;5023674;28;20395;-73
2023/03/07 12:22:09;;;;;;;3.90;3.60;;;4.20;84.70;;;;;;5002365;28;20982;-73
2023/03/07 12:24:56;;;;;;;5.43;4.93;;;4.40;85.10;;;;;;5016831;28;20787;-72
2023/03/07 12:27:29;;;;;;;5.70;5.10;;;4.40;87.70;;;;;;5015032;28;20408;-71
2023/03/07 12:30:01;;;;;;;5.55;4.00;;;4.70;89.60;;;;;;5010065;28;20435;-73
2023/03/07 12:32:28;;;;;;;3.72;3.40;;;4.80;75.00;;;;;;5009831;28;21035;-73
2023/03/07 12:34:59;;;;;;;5.38;4.55;;;4.90;73.90;;;;;;5016731;28;20493;-72
2023/03/07 12:37:33;;;;;;;5.22;4.72;;;4.80;70.80;;;;;;5016921;28;20468;-71
2023/03/07 12:40:02;;;;;;;5.97;5.20;;;4.80;75.00;;;;;;5010219;28;20885;-72
2023/03/07 12:42:41;;;;;;;4.80;4.30;;;5.00;70.10;;;;;;5009703;28;20400;-71
2023/03/07 12:45:10;;;;;;;4.20;3.80;;;5.00;68.10;;;;;;5010377;28;20772;-72
2023/03/07 12:48:01;;;;;;;5.00;4.50;;;5.00;68.20;;;;;;5014301;28;20495;-73
2023/03/07 12:50:30;;;;;;;6.10;4.53;;;5.10;68.90;;;;;;5007340;28;20389;-73
2023/03/07 12:53:17;;;;;;;5.20;3.70;;;5.00;66.30;;;;;;5020879;28;20424;-72
2023/03/07 12:56:02;;;;;;;4.50;3.10;;;5.00;65.70;;;;;;5020500;28;20424;-72
2023/03/07 12:58:49;;;;;;;7.85;5.25;;;4.90;65.50;;;;;;5027754;28;20617;-72